sensor_id;sensor_type;location;lat;lon;timestamp;pressure;altitude;pressure_sealevel;temperature
73265;BMP280;61493;51.008;14.088;2024-01-07T00:01:34;97471.19;;;-2.32
73265;BMP280;61493;51.008;14.088;2024-01-07T00:04:03;97483.47;;;-2.29
73265;BMP280;61493;51.008;14.088;2024-01-07T00:06:33;97482.00;;;-2.30
73265;BMP280;61493;51.008;14.088;2024-01-07T00:09:10;97490.81;;;-2.35
73265;BMP280;61493;51.008;14.088;2024-01-07T00:11:35;97484.88;;;-2.39
73265;BMP280;61493;51.008;14.088;2024-01-07T00:14:03;97493.53;;;-2.24
73265;BMP280;61493;51.008;14.088;2024-01-07T00:16:55;97501.31;;;-2.24
73265;BMP280;61493;51.008;14.088;2024-01-07T00:19:21;97497.88;;;-2.35
73265;BMP280;61493;51.008;14.088;2024-01-07T00:22:08;97507.13;;;-2.34
73265;BMP280;61493;51.008;14.088;2024-01-07T00:24:44;97493.03;;;-2.37
73265;BMP280;61493;51.008;14.088;2024-01-07T00:27:16;97488.19;;;-2.42
73265;BMP280;61493;51.008;14.088;2024-01-07T00:29:46;97499.78;;;-2.29
73265;BMP280;61493;51.008;14.088;2024-01-07T00:32:11;97500.47;;;-2.32
73265;BMP280;61493;51.008;14.088;2024-01-07T00:34:37;97491.13;;;-2.44
73265;BMP280;61493;51.008;14.088;2024-01-07T00:37:05;97500.13;;;-2.34
73265;BMP280;61493;51.008;14.088;2024-01-07T00:39:30;97497.47;;;-2.37
73265;BMP280;61493;51.008;14.088;2024-01-07T00:41:59;97506.47;;;-2.31
73265;BMP280;61493;51.008;14.088;2024-01-07T00:44:39;97507.50;;;-2.36
73265;BMP280;61493;51.008;14.088;2024-01-07T00:47:04;97507.09;;;-2.38
73265;BMP280;61493;51.008;14.088;2024-01-07T00:49:31;97518.28;;;-2.34
73265;BMP280;61493;51.008;14.088;2024-01-07T00:52:06;97518.19;;;-2.45
73265;BMP280;61493;51.008;14.088;2024-01-07T00:54:31;97518.47;;;-2.53
73265;BMP280;61493;51.008;14.088;2024-01-07T00:57:43;97540.38;;;-2.47
73265;BMP280;61493;51.008;14.088;2024-01-07T01:00:44;97527.00;;;-2.53
73265;BMP280;61493;51.008;14.088;2024-01-07T01:06:56;97538.56;;;-2.43
73265;BMP280;61493;51.008;14.088;2024-01-07T01:10:00;97547.84;;;-2.42
73265;BMP280;61493;51.008;14.088;2024-01-07T01:12:42;97535.97;;;-2.43
73265;BMP280;61493;51.008;14.088;2024-01-07T01:21:36;97553.03;;;-2.42
73265;BMP280;61493;51.008;14.088;2024-01-07T01:24:16;97539.69;;;-2.44
73265;BMP280;61493;51.008;14.088;2024-01-07T01:30:19;97550.41;;;-2.46
73265;BMP280;61493;51.008;14.088;2024-01-07T01:49:47;97573.97;;;-2.61
73265;BMP280;61493;51.008;14.088;2024-01-07T01:52:15;97571.75;;;-2.59
73265;BMP280;61493;51.008;14.088;2024-01-07T01:54:40;97565.44;;;-2.62
73265;BMP280;61493;51.008;14.088;2024-01-07T01:57:15;97577.28;;;-2.64
73265;BMP280;61493;51.008;14.088;2024-01-07T01:59:46;97580.50;;;-2.68
73265;BMP280;61493;51.008;14.088;2024-01-07T02:05:45;97571.53;;;-2.77
73265;BMP280;61493;51.008;14.088;2024-01-07T02:08:13;97577.16;;;-2.72
73265;BMP280;61493;51.008;14.088;2024-01-07T02:10:41;97590.16;;;-2.68
73265;BMP280;61493;51.008;14.088;2024-01-07T02:13:36;97594.16;;;-2.74
73265;BMP280;61493;51.008;14.088;2024-01-07T02:16:07;97588.94;;;-2.78
73265;BMP280;61493;51.008;14.088;2024-01-07T02:18:32;97596.03;;;-2.71
73265;BMP280;61493;51.008;14.088;2024-01-07T02:20:57;97598.31;;;-2.70
73265;BMP280;61493;51.008;14.088;2024-01-07T02:23:42;97591.25;;;-2.69
73265;BMP280;61493;51.008;14.088;2024-01-07T02:26:42;97606.09;;;-2.70
73265;BMP280;61493;51.008;14.088;2024-01-07T02:29:10;97596.34;;;-2.76
73265;BMP280;61493;51.008;14.088;2024-01-07T02:34:31;97590.34;;;-2.84
73265;BMP280;61493;51.008;14.088;2024-01-07T02:37:15;97599.22;;;-2.85
73265;BMP280;61493;51.008;14.088;2024-01-07T02:45:39;97598.25;;;-3.00
73265;BMP280;61493;51.008;14.088;2024-01-07T02:48:04;97611.31;;;-2.93
73265;BMP280;61493;51.008;14.088;2024-01-07T02:50:31;97596.06;;;-2.98
73265;BMP280;61493;51.008;14.088;2024-01-07T02:53:16;97603.84;;;-2.98
73265;BMP280;61493;51.008;14.088;2024-01-07T02:55:42;97615.66;;;-3.00
73265;BMP280;61493;51.008;14.088;2024-01-07T02:58:25;97609.22;;;-3.10
73265;BMP280;61493;51.008;14.088;2024-01-07T03:01:12;97618.97;;;-3.03
73265;BMP280;61493;51.008;14.088;2024-01-07T03:03:46;97616.75;;;-3.01
73265;BMP280;61493;51.008;14.088;2024-01-07T03:06:33;97609.94;;;-3.13
73265;BMP280;61493;51.008;14.088;2024-01-07T03:09:24;97612.63;;;-3.06
73265;BMP280;61493;51.008;14.088;2024-01-07T03:12:23;97617.09;;;-3.03
73265;BMP280;61493;51.008;14.088;2024-01-07T03:14:51;97606.63;;;-3.10
73265;BMP280;61493;51.008;14.088;2024-01-07T03:17:38;97611.88;;;-3.06
73265;BMP280;61493;51.008;14.088;2024-01-07T03:20:31;97608.88;;;-3.08
73265;BMP280;61493;51.008;14.088;2024-01-07T03:22:59;97607.38;;;-3.10
73265;BMP280;61493;51.008;14.088;2024-01-07T03:25:30;97620.44;;;-3.02
73265;BMP280;61493;51.008;14.088;2024-01-07T03:28:03;97611.06;;;-3.11
73265;BMP280;61493;51.008;14.088;2024-01-07T03:30:29;97612.56;;;-3.10
73265;BMP280;61493;51.008;14.088;2024-01-07T03:32:54;97609.47;;;-3.19
73265;BMP280;61493;51.008;14.088;2024-01-07T03:35:38;97614.81;;;-3.08
73265;BMP280;61493;51.008;14.088;2024-01-07T03:38:04;97612.47;;;-3.17
73265;BMP280;61493;51.008;14.088;2024-01-07T03:40:29;97621.00;;;-3.16
73265;BMP280;61493;51.008;14.088;2024-01-07T03:43:02;97623.25;;;-3.15
73265;BMP280;61493;51.008;14.088;2024-01-07T03:45:34;97625.47;;;-3.13
73265;BMP280;61493;51.008;14.088;2024-01-07T03:48:02;97623.25;;;-3.15
73265;BMP280;61493;51.008;14.088;2024-01-07T03:50:28;97624.25;;;-3.23
73265;BMP280;61493;51.008;14.088;2024-01-07T03:52:55;97632.34;;;-3.24
73265;BMP280;61493;51.008;14.088;2024-01-07T03:55:26;97631.31;;;-3.20
73265;BMP280;61493;51.008;14.088;2024-01-07T03:58:10;97630.63;;;-3.17
73265;BMP280;61493;51.008;14.088;2024-01-07T04:00:36;97645.81;;;-3.15
73265;BMP280;61493;51.008;14.088;2024-01-07T04:03:01;97645.72;;;-3.22
73265;BMP280;61493;51.008;14.088;2024-01-07T04:05:36;97639.31;;;-3.28
73265;BMP280;61493;51.008;14.088;2024-01-07T04:08:08;97651.34;;;-3.17
73265;BMP280;61493;51.008;14.088;2024-01-07T04:10:34;97663.22;;;-3.16
73265;BMP280;61493;51.008;14.088;2024-01-07T04:12:59;97655.44;;;-3.16
73265;BMP280;61493;51.008;14.088;2024-01-07T04:15:24;97647.66;;;-3.16
73265;BMP280;61493;51.008;14.088;2024-01-07T04:17:50;97665.78;;;-3.16
73265;BMP280;61493;51.008;14.088;2024-01-07T04:20:15;97657.97;;;-3.19
73265;BMP280;61493;51.008;14.088;2024-01-07T04:22:40;97670.47;;;-3.25
73265;BMP280;61493;51.008;14.088;2024-01-07T04:25:06;97666.03;;;-3.24
73265;BMP280;61493;51.008;14.088;2024-01-07T04:27:36;97667.44;;;-3.27
73265;BMP280;61493;51.008;14.088;2024-01-07T04:30:02;97672.72;;;-3.23
73265;BMP280;61493;51.008;14.088;2024-01-07T04:32:27;97671.22;;;-3.24
73265;BMP280;61493;51.008;14.088;2024-01-07T04:34:53;97670.47;;;-3.25
73265;BMP280;61493;51.008;14.088;2024-01-07T04:37:19;97675.59;;;-3.28
73265;BMP280;61493;51.008;14.088;2024-01-07T04:39:44;97675.22;;;-3.27
73265;BMP280;61493;51.008;14.088;2024-01-07T04:42:09;97669.78;;;-3.22
73265;BMP280;61493;51.008;14.088;2024-01-07T04:44:37;97662.97;;;-3.30
73265;BMP280;61493;51.008;14.088;2024-01-07T04:47:05;97670.34;;;-3.32
73265;BMP280;61493;51.008;14.088;2024-01-07T04:49:30;97670.47;;;-3.25
73265;BMP280;61493;51.008;14.088;2024-01-07T04:51:55;97667.16;;;-3.25
73265;BMP280;61493;51.008;14.088;2024-01-07T04:54:20;97667.44;;;-3.27
73265;BMP280;61493;51.008;14.088;2024-01-07T04:56:45;97674.03;;;-3.33
73265;BMP280;61493;51.008;14.088;2024-01-07T04:59:11;97683.28;;;-3.32
73265;BMP280;61493;51.008;14.088;2024-01-07T05:01:36;97676.22;;;-3.35
73265;BMP280;61493;51.008;14.088;2024-01-07T05:04:02;97679.91;;;-3.36
73265;BMP280;61493;51.008;14.088;2024-01-07T05:06:27;97681.41;;;-3.35
73265;BMP280;61493;51.008;14.088;2024-01-07T05:08:53;97681.41;;;-3.35
73265;BMP280;61493;51.008;14.088;2024-01-07T05:11:18;97687.31;;;-3.35
73265;BMP280;61493;51.008;14.088;2024-01-07T05:13:43;97685.09;;;-3.36
73265;BMP280;61493;51.008;14.088;2024-01-07T05:16:08;97690.00;;;-3.31
73265;BMP280;61493;51.008;14.088;2024-01-07T05:18:34;97701.34;;;-3.39
73265;BMP280;61493;51.008;14.088;2024-01-07T05:20:59;97695.72;;;-3.41
73265;BMP280;61493;51.008;14.088;2024-01-07T05:23:24;97703.84;;;-3.43
73265;BMP280;61493;51.008;14.088;2024-01-07T05:25:49;97702.03;;;-3.42
73265;BMP280;61493;51.008;14.088;2024-01-07T05:28:15;97708.28;;;-3.43
73265;BMP280;61493;51.008;14.088;2024-01-07T05:30:44;97713.13;;;-3.42
73265;BMP280;61493;51.008;14.088;2024-01-07T05:33:09;97716.06;;;-3.43
73265;BMP280;61493;51.008;14.088;2024-01-07T05:35:35;97711.63;;;-3.43
73265;BMP280;61493;51.008;14.088;2024-01-07T05:38:00;97711.63;;;-3.43
73265;BMP280;61493;51.008;14.088;2024-01-07T05:40:25;97712.31;;;-3.46
73265;BMP280;61493;51.008;14.088;2024-01-07T05:42:51;97721.66;;;-3.41
73265;BMP280;61493;51.008;14.088;2024-01-07T05:45:16;97717.47;;;-3.46
73265;BMP280;61493;51.008;14.088;2024-01-07T05:47:41;97709.38;;;-3.44
73265;BMP280;61493;51.008;14.088;2024-01-07T05:50:07;97719.06;;;-3.41
73265;BMP280;61493;51.008;14.088;2024-01-07T05:52:32;97719.69;;;-3.48
73265;BMP280;61493;51.008;14.088;2024-01-07T05:54:58;97729.28;;;-3.48
73265;BMP280;61493;51.008;14.088;2024-01-07T05:57:23;97721.88;;;-3.50
73265;BMP280;61493;51.008;14.088;2024-01-07T05:59:48;97726.31;;;-3.50
73265;BMP280;61493;51.008;14.088;2024-01-07T06:02:15;97732.53;;;-3.52
73265;BMP280;61493;51.008;14.088;2024-01-07T06:04:42;97728.47;;;-3.53
73265;BMP280;61493;51.008;14.088;2024-01-07T06:07:07;97742.59;;;-3.50
73265;BMP280;61493;51.008;14.088;2024-01-07T06:09:33;97747.03;;;-3.50
73265;BMP280;61493;51.008;14.088;2024-01-07T06:11:58;97753.69;;;-3.49
73265;BMP280;61493;51.008;14.088;2024-01-07T06:14:23;97754.22;;;-3.60
73265;BMP280;61493;51.008;14.088;2024-01-07T06:16:48;97758.75;;;-3.57
73265;BMP280;61493;51.008;14.088;2024-01-07T06:19:16;97759.06;;;-3.58
73265;BMP280;61493;51.008;14.088;2024-01-07T06:21:41;97763.97;;;-3.53
73265;BMP280;61493;51.008;14.088;2024-01-07T06:24:09;97772.50;;;-3.53
73265;BMP280;61493;51.008;14.088;2024-01-07T06:26:35;97779.47;;;-3.57
73265;BMP280;61493;51.008;14.088;2024-01-07T06:29:00;97776.03;;;-3.61
73265;BMP280;61493;51.008;14.088;2024-01-07T06:31:26;97779.31;;;-3.64
73265;BMP280;61493;51.008;14.088;2024-01-07T06:33:51;97794.13;;;-3.64
73265;BMP280;61493;51.008;14.088;2024-01-07T06:36:19;97792.97;;;-3.67
73265;BMP280;61493;51.008;14.088;2024-01-07T06:38:45;97800.38;;;-3.65
73265;BMP280;61493;51.008;14.088;2024-01-07T06:41:11;97806.97;;;-3.68
73265;BMP280;61493;51.008;14.088;2024-01-07T06:43:38;97809.50;;;-3.71
73265;BMP280;61493;51.008;14.088;2024-01-07T06:46:03;97800.56;;;-3.74
73265;BMP280;61493;51.008;14.088;2024-01-07T06:48:29;97807.59;;;-3.75
73265;BMP280;61493;51.008;14.088;2024-01-07T06:50:54;97803.53;;;-3.76
73265;BMP280;61493;51.008;14.088;2024-01-07T06:53:20;97813.03;;;-3.80
73265;BMP280;61493;51.008;14.088;2024-01-07T06:55:46;97810.38;;;-3.83
73265;BMP280;61493;51.008;14.088;2024-01-07T06:58:11;97815.53;;;-3.83
73265;BMP280;61493;51.008;14.088;2024-01-07T07:00:37;97820.03;;;-3.80
73265;BMP280;61493;51.008;14.088;2024-01-07T07:03:02;97823.72;;;-3.81
73265;BMP280;61493;51.008;14.088;2024-01-07T07:05:27;97825.56;;;-3.82
73265;BMP280;61493;51.008;14.088;2024-01-07T07:07:53;97824.41;;;-3.84
73265;BMP280;61493;51.008;14.088;2024-01-07T07:10:18;97834.00;;;-3.85
73265;BMP280;61493;51.008;14.088;2024-01-07T07:12:43;97829.16;;;-3.86
73265;BMP280;61493;51.008;14.088;2024-01-07T07:15:09;97839.78;;;-3.91
73265;BMP280;61493;51.008;14.088;2024-01-07T07:17:37;97848.31;;;-3.91
73265;BMP280;61493;51.008;14.088;2024-01-07T07:20:03;97846.06;;;-3.92
73265;BMP280;61493;51.008;14.088;2024-01-07T07:22:29;97847.91;;;-3.93
73265;BMP280;61493;51.008;14.088;2024-01-07T07:24:54;97854.22;;;-3.90
73265;BMP280;61493;51.008;14.088;2024-01-07T07:27:19;97855.69;;;-3.93
73265;BMP280;61493;51.008;14.088;2024-01-07T07:29:45;97858.16;;;-3.97
73265;BMP280;61493;51.008;14.088;2024-01-07T07:32:10;97862.66;;;-3.93
73265;BMP280;61493;51.008;14.088;2024-01-07T07:37:57;97869.63;;;-3.98
73265;BMP280;61493;51.008;14.088;2024-01-07T07:40:22;97858.41;;;-4.02
73265;BMP280;61493;51.008;14.088;2024-01-07T07:42:48;97855.47;;;-4.00
73265;BMP280;61493;51.008;14.088;2024-01-07T07:45:13;97865.50;;;-3.99
73265;BMP280;61493;51.008;14.088;2024-01-07T07:47:38;97872.28;;;-3.94
73265;BMP280;61493;51.008;14.088;2024-01-07T07:50:09;97890.41;;;-3.94
73265;BMP280;61493;51.008;14.088;2024-01-07T07:52:35;97886.19;;;-3.99
73265;BMP280;61493;51.008;14.088;2024-01-07T07:55:00;97894.16;;;-3.91
73265;BMP280;61493;51.008;14.088;2024-01-07T07:57:25;97885.28;;;-3.90
73265;BMP280;61493;51.008;14.088;2024-01-07T07:59:51;97891.91;;;-3.93
73265;BMP280;61493;51.008;14.088;2024-01-07T08:02:17;97896.75;;;-3.91
73265;BMP280;61493;51.008;14.088;2024-01-07T08:04:43;97895.94;;;-3.95
73265;BMP280;61493;51.008;14.088;2024-01-07T08:07:09;97902.28;;;-3.93
73265;BMP280;61493;51.008;14.088;2024-01-07T08:09:35;97910.38;;;-3.94
73265;BMP280;61493;51.008;14.088;2024-01-07T08:12:04;97916.50;;;-3.99
73265;BMP280;61493;51.008;14.088;2024-01-07T08:14:32;97916.63;;;-3.95
73265;BMP280;61493;51.008;14.088;2024-01-07T08:16:57;97916.34;;;-3.90
73265;BMP280;61493;51.008;14.088;2024-01-07T08:19:23;97923.06;;;-3.89
73265;BMP280;61493;51.008;14.088;2024-01-07T08:21:48;97921.22;;;-3.89
73265;BMP280;61493;51.008;14.088;2024-01-07T08:24:13;97921.22;;;-3.89
73265;BMP280;61493;51.008;14.088;2024-01-07T08:26:39;97924.28;;;-3.83
73265;BMP280;61493;51.008;14.088;2024-01-07T08:29:04;97923.13;;;-3.86
73265;BMP280;61493;51.008;14.088;2024-01-07T08:31:30;97927.13;;;-3.88
73265;BMP280;61493;51.008;14.088;2024-01-07T08:33:55;97926.72;;;-3.90
73265;BMP280;61493;51.008;14.088;2024-01-07T08:36:21;97935.94;;;-3.93
73265;BMP280;61493;51.008;14.088;2024-01-07T08:38:46;97933.34;;;-3.93
73265;BMP280;61493;51.008;14.088;2024-01-07T08:41:11;97931.41;;;-3.96
73265;BMP280;61493;51.008;14.088;2024-01-07T08:43:38;97936.94;;;-3.98
73265;BMP280;61493;51.008;14.088;2024-01-07T08:46:03;97948.53;;;-3.91
73265;BMP280;61493;51.008;14.088;2024-01-07T08:48:29;97948.28;;;-3.86
73265;BMP280;61493;51.008;14.088;2024-01-07T08:50:55;97949.25;;;-3.91
73265;BMP280;61493;51.008;14.088;2024-01-07T08:53:20;97950.84;;;-3.86
73265;BMP280;61493;51.008;14.088;2024-01-07T08:55:47;97965.03;;;-3.80
73265;BMP280;61493;51.008;14.088;2024-01-07T08:58:12;97962.31;;;-3.87
73265;BMP280;61493;51.008;14.088;2024-01-07T09:00:39;97968.91;;;-3.74
73265;BMP280;61493;51.008;14.088;2024-01-07T09:03:04;97965.97;;;-3.88
73265;BMP280;61493;51.008;14.088;2024-01-07T09:05:30;97966.13;;;-3.81
73265;BMP280;61493;51.008;14.088;2024-01-07T09:07:55;97961.28;;;-3.83
73265;BMP280;61493;51.008;14.088;2024-01-07T09:10:21;97971.47;;;-3.74
73265;BMP280;61493;51.008;14.088;2024-01-07T09:12:47;97979.84;;;-3.81
73265;BMP280;61493;51.008;14.088;2024-01-07T09:15:12;97972.75;;;-3.84
73265;BMP280;61493;51.008;14.088;2024-01-07T09:17:38;97979.16;;;-3.78
73265;BMP280;61493;51.008;14.088;2024-01-07T09:20:04;97981.44;;;-3.76
73265;BMP280;61493;51.008;14.088;2024-01-07T09:22:32;97987.78;;;-3.73
73265;BMP280;61493;51.008;14.088;2024-01-07T09:24:58;97989.97;;;-3.76
73265;BMP280;61493;51.008;14.088;2024-01-07T09:27:25;97984.94;;;-3.68
73265;BMP280;61493;51.008;14.088;2024-01-07T09:29:50;97990.22;;;-3.65
73265;BMP280;61493;51.008;14.088;2024-01-07T09:32:17;97985.59;;;-3.71
73265;BMP280;61493;51.008;14.088;2024-01-07T09:34:42;97987.94;;;-3.66
73265;BMP280;61493;51.008;14.088;2024-01-07T09:37:09;97991.53;;;-3.71
73265;BMP280;61493;51.008;14.088;2024-01-07T09:39:39;97988.00;;;-3.63
73265;BMP280;61493;51.008;14.088;2024-01-07T09:42:15;97996.03;;;-3.68
73265;BMP280;61493;51.008;14.088;2024-01-07T09:44:42;97992.31;;;-3.70
73265;BMP280;61493;51.008;14.088;2024-01-07T09:47:10;97996.47;;;-3.82
73265;BMP280;61493;51.008;14.088;2024-01-07T09:49:36;97992.44;;;-3.79
73265;BMP280;61493;51.008;14.088;2024-01-07T09:52:03;97989.97;;;-3.76
73265;BMP280;61493;51.008;14.088;2024-01-07T09:54:29;97998.22;;;-3.70
73265;BMP280;61493;51.008;14.088;2024-01-07T09:57:05;97991.63;;;-3.67
73265;BMP280;61493;51.008;14.088;2024-01-07T09:59:32;97996.72;;;-3.71
73265;BMP280;61493;51.008;14.088;2024-01-07T10:01:58;97998.22;;;-3.70
73265;BMP280;61493;51.008;14.088;2024-01-07T10:04:24;98002.13;;;-3.60
73265;BMP280;61493;51.008;14.088;2024-01-07T10:06:50;98001.72;;;-3.62
73265;BMP280;61493;51.008;14.088;2024-01-07T10:09:17;97999.88;;;-3.62
73265;BMP280;61493;51.008;14.088;2024-01-07T10:11:45;98001.72;;;-3.78
73265;BMP280;61493;51.008;14.088;2024-01-07T10:14:11;98006.25;;;-3.75
73265;BMP280;61493;51.008;14.088;2024-01-07T10:16:37;98007.47;;;-3.85
73265;BMP280;61493;51.008;14.088;2024-01-07T10:19:02;98002.22;;;-3.88
73265;BMP280;61493;51.008;14.088;2024-01-07T10:21:28;97999.44;;;-3.80
73265;BMP280;61493;51.008;14.088;2024-01-07T10:24:13;98000.19;;;-3.79
73265;BMP280;61493;51.008;14.088;2024-01-07T10:26:40;98006.72;;;-3.85
73265;BMP280;61493;51.008;14.088;2024-01-07T10:29:08;98003.13;;;-3.81
73265;BMP280;61493;51.008;14.088;2024-01-07T10:31:38;98004.66;;;-3.95
73265;BMP280;61493;51.008;14.088;2024-01-07T10:34:07;98008.91;;;-3.87
73265;BMP280;61493;51.008;14.088;2024-01-07T10:36:33;98010.69;;;-3.76
73265;BMP280;61493;51.008;14.088;2024-01-07T10:38:59;98012.00;;;-3.82
73265;BMP280;61493;51.008;14.088;2024-01-07T10:41:25;98017.50;;;-3.83
73265;BMP280;61493;51.008;14.088;2024-01-07T10:43:50;98031.13;;;-3.86
73265;BMP280;61493;51.008;14.088;2024-01-07T10:46:16;98024.03;;;-3.73
73265;BMP280;61493;51.008;14.088;2024-01-07T10:48:55;98026.97;;;-3.75
73265;BMP280;61493;51.008;14.088;2024-01-07T10:51:21;98030.88;;;-3.65
73265;BMP280;61493;51.008;14.088;2024-01-07T10:53:57;98024.53;;;-3.68
73265;BMP280;61493;51.008;14.088;2024-01-07T10:56:25;98025.34;;;-3.80
73265;BMP280;61493;51.008;14.088;2024-01-07T10:58:54;98034.13;;;-3.84
73265;BMP280;61493;51.008;14.088;2024-01-07T11:01:20;98026.38;;;-3.84
73265;BMP280;61493;51.008;14.088;2024-01-07T11:03:57;98024.03;;;-3.73
73265;BMP280;61493;51.008;14.088;2024-01-07T11:12:35;98027.63;;;-3.78
73265;BMP280;61493;51.008;14.088;2024-01-07T11:15:01;98034.56;;;-3.66
73265;BMP280;61493;51.008;14.088;2024-01-07T11:20:05;98031.03;;;-3.58
73265;BMP280;61493;51.008;14.088;2024-01-07T11:22:31;98036.44;;;-3.51
73265;BMP280;61493;51.008;14.088;2024-01-07T11:25:00;98044.75;;;-3.42
73265;BMP280;61493;51.008;14.088;2024-01-07T11:27:29;98044.94;;;-3.50
73265;BMP280;61493;51.008;14.088;2024-01-07T11:30:05;98048.28;;;-3.50
73265;BMP280;61493;51.008;14.088;2024-01-07T11:32:35;98051.84;;;-3.39
73265;BMP280;61493;51.008;14.088;2024-01-07T11:35:01;98044.41;;;-3.40
73265;BMP280;61493;51.008;14.088;2024-01-07T11:37:27;98045.66;;;-3.34
73265;BMP280;61493;51.008;14.088;2024-01-07T11:39:57;98057.34;;;-3.08
73265;BMP280;61493;51.008;14.088;2024-01-07T11:42:24;98047.63;;;-2.96
73265;BMP280;61493;51.008;14.088;2024-01-07T11:44:53;98048.88;;;-2.90
73265;BMP280;61493;51.008;14.088;2024-01-07T11:47:23;98048.63;;;-2.65
73265;BMP280;61493;51.008;14.088;2024-01-07T11:49:51;98052.94;;;-2.53
73265;BMP280;61493;51.008;14.088;2024-01-07T11:52:19;98053.97;;;-2.74
73265;BMP280;61493;51.008;14.088;2024-01-07T11:54:48;98051.28;;;-2.81
73265;BMP280;61493;51.008;14.088;2024-01-07T11:57:14;98047.63;;;-2.96
73265;BMP280;61493;51.008;14.088;2024-01-07T11:59:43;98054.19;;;-2.98
73265;BMP280;61493;51.008;14.088;2024-01-07T12:02:08;98050.72;;;-3.06
73265;BMP280;61493;51.008;14.088;2024-01-07T12:04:34;98046.06;;;-3.16
73265;BMP280;61493;51.008;14.088;2024-01-07T12:07:01;98056.53;;;-3.28
73265;BMP280;61493;51.008;14.088;2024-01-07T12:09:28;98047.09;;;-3.37
73265;BMP280;61493;51.008;14.088;2024-01-07T12:11:54;98060.78;;;-3.52
73265;BMP280;61493;51.008;14.088;2024-01-07T12:14:20;98061.88;;;-3.69
73265;BMP280;61493;51.008;14.088;2024-01-07T12:16:45;98066.06;;;-3.48
73265;BMP280;61493;51.008;14.088;2024-01-07T12:19:12;98066.47;;;-3.31
73265;BMP280;61493;51.008;14.088;2024-01-07T12:21:38;98070.34;;;-3.24
73265;BMP280;61493;51.008;14.088;2024-01-07T12:24:04;98067.47;;;-3.03
73265;BMP280;61493;51.008;14.088;2024-01-07T12:26:30;98067.09;;;-2.86
73265;BMP280;61493;51.008;14.088;2024-01-07T12:28:57;98067.44;;;-2.68
73265;BMP280;61493;51.008;14.088;2024-01-07T12:31:26;98076.63;;;-2.71
73265;BMP280;61493;51.008;14.088;2024-01-07T12:33:52;98068.69;;;-2.97
73265;BMP280;61493;51.008;14.088;2024-01-07T12:36:22;98078.97;;;-2.85
73265;BMP280;61493;51.008;14.088;2024-01-07T12:38:48;98065.63;;;-3.19
73265;BMP280;61493;51.008;14.088;2024-01-07T12:41:13;98082.63;;;-3.21
73265;BMP280;61493;51.008;14.088;2024-01-07T12:43:39;98076.69;;;-3.22
73265;BMP280;61493;51.008;14.088;2024-01-07T12:46:07;98085.22;;;-3.37
73265;BMP280;61493;51.008;14.088;2024-01-07T12:48:32;98094.66;;;-3.45
73265;BMP280;61493;51.008;14.088;2024-01-07T12:50:59;98085.47;;;-3.42
73265;BMP280;61493;51.008;14.088;2024-01-07T12:53:25;98094.03;;;-3.54
73265;BMP280;61493;51.008;14.088;2024-01-07T12:55:50;98098.13;;;-3.69
73265;BMP280;61493;51.008;14.088;2024-01-07T12:58:16;98092.97;;;-3.69
73265;BMP280;61493;51.008;14.088;2024-01-07T13:00:42;98096.06;;;-3.63
73265;BMP280;61493;51.008;14.088;2024-01-07T13:03:08;98103.56;;;-3.74
73265;BMP280;61493;51.008;14.088;2024-01-07T13:05:38;98099.38;;;-3.79
73265;BMP280;61493;51.008;14.088;2024-01-07T13:08:04;98106.38;;;-3.79
73265;BMP280;61493;51.008;14.088;2024-01-07T13:10:29;98106.50;;;-3.76
73265;BMP280;61493;51.008;14.088;2024-01-07T13:13:04;98100.13;;;-3.78
73265;BMP280;61493;51.008;14.088;2024-01-07T13:15:31;98108.59;;;-3.93
73265;BMP280;61493;51.008;14.088;2024-01-07T13:21:22;98100.44;;;-3.95
73265;BMP280;61493;51.008;14.088;2024-01-07T13:23:50;98106.22;;;-3.99
73265;BMP280;61493;51.008;14.088;2024-01-07T13:26:21;98108.53;;;-3.97
73265;BMP280;61493;51.008;14.088;2024-01-07T13:28:56;98103.25;;;-4.01
73265;BMP280;61493;51.008;14.088;2024-01-07T14:45:32;98153.38;;;-4.33
73265;BMP280;61493;51.008;14.088;2024-01-07T14:48:09;98159.94;;;-4.36
73265;BMP280;61493;51.008;14.088;2024-01-07T14:50:53;98161.34;;;-4.38
73265;BMP280;61493;51.008;14.088;2024-01-07T14:53:48;98157.47;;;-4.45
73265;BMP280;61493;51.008;14.088;2024-01-07T14:56:14;98161.44;;;-4.35
73265;BMP280;61493;51.008;14.088;2024-01-07T14:58:39;98173.22;;;-4.37
73265;BMP280;61493;51.008;14.088;2024-01-07T15:01:14;98163.72;;;-4.46
73265;BMP280;61493;51.008;14.088;2024-01-07T15:04:47;98175.38;;;-4.40
73265;BMP280;61493;51.008;14.088;2024-01-07T15:06:59;98167.16;;;-4.42
73265;BMP280;61493;51.008;14.088;2024-01-07T15:09:24;98167.63;;;-4.40
73265;BMP280;61493;51.008;14.088;2024-01-07T15:11:49;98156.59;;;-4.49
73265;BMP280;61493;51.008;14.088;2024-01-07T15:14:16;98165.97;;;-4.44
73265;BMP280;61493;51.008;14.088;2024-01-07T15:16:41;98155.44;;;-4.51
73265;BMP280;61493;51.008;14.088;2024-01-07T15:19:06;98169.97;;;-4.47
73265;BMP280;61493;51.008;14.088;2024-01-07T15:21:47;98176.66;;;-4.46
73265;BMP280;61493;51.008;14.088;2024-01-07T15:24:28;98184.00;;;-4.48
73265;BMP280;61493;51.008;14.088;2024-01-07T15:26:54;98184.66;;;-4.51
73265;BMP280;61493;51.008;14.088;2024-01-07T15:29:27;98193.47;;;-4.52
73265;BMP280;61493;51.008;14.088;2024-01-07T15:32:02;98188.28;;;-4.52
73265;BMP280;61493;51.008;14.088;2024-01-07T15:34:27;98198.22;;;-4.54
73265;BMP280;61493;51.008;14.088;2024-01-07T15:37:07;98197.38;;;-4.58
73265;BMP280;61493;51.008;14.088;2024-01-07T15:39:33;98200.28;;;-4.59
73265;BMP280;61493;51.008;14.088;2024-01-07T15:42:08;98196.91;;;-4.60
73265;BMP280;61493;51.008;14.088;2024-01-07T15:47:27;98201.22;;;-4.64
73265;BMP280;61493;51.008;14.088;2024-01-07T15:49:55;98212.75;;;-4.62
73265;BMP280;61493;51.008;14.088;2024-01-07T15:52:36;98201.97;;;-4.64
73265;BMP280;61493;51.008;14.088;2024-01-07T15:55:08;98208.97;;;-4.64
73265;BMP280;61493;51.008;14.088;2024-01-07T16:01:06;98216.84;;;-4.61
73265;BMP280;61493;51.008;14.088;2024-01-07T16:03:38;98213.41;;;-4.65
73265;BMP280;61493;51.008;14.088;2024-01-07T16:06:41;98217.84;;;-4.65
73265;BMP280;61493;51.008;14.088;2024-01-07T16:09:12;98216.09;;;-4.61
73265;BMP280;61493;51.008;14.088;2024-01-07T16:11:38;98219.31;;;-4.64
73265;BMP280;61493;51.008;14.088;2024-01-07T16:14:13;98217.06;;;-4.66
73265;BMP280;61493;51.008;14.088;2024-01-07T16:16:41;98220.72;;;-4.67
73265;BMP280;61493;51.008;14.088;2024-01-07T16:19:07;98227.72;;;-4.67
73265;BMP280;61493;51.008;14.088;2024-01-07T16:21:35;98223.75;;;-4.65
73265;BMP280;61493;51.008;14.088;2024-01-07T16:24:04;98231.16;;;-4.63
73265;BMP280;61493;51.008;14.088;2024-01-07T16:26:31;98234.09;;;-4.65